Arklow Rogue — EIGD — position and weather

sailwx.info

Track history (hours):
 
Tides and Currents Weather Stations Pressure Air Temp Water Temp Dewpoint Dewpoint Depression Visibility Wind Speed Wind Dir Waves Ship Positions

Arklow Rogue

Last reported at 2017-Mar-24 22:32 UTC. Time now 2017-Mar-25 11:42 UTC.
Position N 57°16' E 008°20'.

Length 90 m; draft 3.4 m.

Type: Cargo ship. MMSI: 250000960.

Date/timePositionNaut miles runAvg speedWind from/ knotsBaromVisibWave heightAir tempDewpointWater temp
2017-Mar-24 22:32N 57°16' E 008°20'1110.7
2017-Mar-24 21:32N 57°22' E 008°37'6110.2
2017-Mar-24 15:33N 57°47' E 010°20'1110.6
2017-Mar-24 14:31N 57°49' E 010°40'1010.1
2017-Mar-24 13:33N 57°44' E 010°56'1010.0
2017-Mar-24 12:33N 57°37' E 011°09'1111.0
2017-Mar-24 11:33N 57°29' E 011°24'1111.1
2017-Mar-24 10:33N 57°19' E 011°32'1111.4
2017-Mar-24 09:33N 57°08' E 011°40'1111.4
2017-Mar-24 08:33N 56°58' E 011°46'1110.9
2017-Mar-24 07:32N 56°47' E 011°54'1111.0
2017-Mar-24 06:33N 56°37' E 011°59'1110.7
2017-Mar-24 05:33N 56°27' E 012°07'1110.9
2017-Mar-24 04:32N 56°18' E 012°19'1111.4
2017-Mar-24 03:33N 56°09' E 012°30'1211.8
2017-Mar-24 02:33N 55°59' E 012°42'1111.3
2017-Mar-24 01:34N 55°48' E 012°43'1211.8
2017-Mar-24 00:33N 55°36' E 012°42'1111.3
2017-Mar-23 23:33N 55°25' E 012°41'9 9.3
2017-Mar-23 22:33N 55°17' E 012°50'1111.5
2017-Mar-23 21:33N 55°15' E 013°10'1211.4
2017-Mar-23 20:32N 55°14' E 013°30'1111.1
2017-Mar-23 19:33N 55°13' E 013°49'1111.2
2017-Mar-23 18:33N 55°12' E 014°09'1111.1
2017-Mar-23 17:33N 55°06' E 014°25'1111.2
2017-Mar-23 16:33N 54°59' E 014°40'1111.0
2017-Mar-23 15:33N 54°54' E 014°57'1111.2
2017-Mar-23 14:33N 54°54' E 015°17'9511.2
2017-Mar-23 06:08N 54°54' E 018°01'711.3
2017-Mar-23 05:29N 54°54' E 018°14'1011.0
2017-Mar-23 04:34N 54°52' E 018°31'1111.4
2017-Mar-23 03:34N 54°45' E 018°47'9 9.3
2017-Mar-23 02:33N 54°37' E 018°55'10 9.9
2017-Mar-23 01:33N 54°29' E 018°45'6 6.3
2017-Mar-23 00:33N 54°24' E 018°41'2 1.9
2017-Mar-22 23:32N 54°22' E 018°40'0 0.0
2017-Mar-22 22:32N 54°22' E 018°40'0 0.0
2017-Mar-22 21:32N 54°22' E 018°40'0 0.0
2017-Mar-22 20:32N 54°22' E 018°40'0 0.0
2017-Mar-22 19:32N 54°22' E 018°40'0 0.0
2017-Mar-22 18:32N 54°22' E 018°40'0 0.0
2017-Mar-22 17:32N 54°22' E 018°40'0 0.0
2017-Mar-22 16:32N 54°22' E 018°40'0 0.0
2017-Mar-22 15:32N 54°22' E 018°40'0 0.0
2017-Mar-22 14:32N 54°22' E 018°40'0 0.0
2017-Mar-22 13:32N 54°22' E 018°40'0 0.0
2017-Mar-22 12:32N 54°22' E 018°40'0 0.0
2017-Mar-22 11:32N 54°22' E 018°40'0 0.0
2017-Mar-22 10:32N 54°22' E 018°40'0 0.0
2017-Mar-22 09:32N 54°22' E 018°40'0 0.0
2017-Mar-22 08:32N 54°22' E 018°40'0 0.0
2017-Mar-22 07:32N 54°22' E 018°40'0 0.0
2017-Mar-22 06:32N 54°22' E 018°40'0 0.0
2017-Mar-22 05:32N 54°22' E 018°40'0 0.0
2017-Mar-22 04:32N 54°22' E 018°40'0 0.0
2017-Mar-22 03:32N 54°22' E 018°40'0 0.0
2017-Mar-22 02:32N 54°22' E 018°40'0 0.0
2017-Mar-22 01:32N 54°22' E 018°40'0 0.0
2017-Mar-22 00:32N 54°22' E 018°40'0 0.0
2017-Mar-21 23:32N 54°22' E 018°40'0 0.0
2017-Mar-21 22:32N 54°22' E 018°40'0 0.0
2017-Mar-21 21:32N 54°22' E 018°40'0 0.0
2017-Mar-21 20:32N 54°22' E 018°40'0 0.0
2017-Mar-21 19:32N 54°22' E 018°40'0 0.0
2017-Mar-21 18:32N 54°22' E 018°40'0 0.0
2017-Mar-21 17:32N 54°22' E 018°40'0 0.0
2017-Mar-21 16:32N 54°22' E 018°40'1 1.4
2017-Mar-21 15:33N 54°23' E 018°40'7 6.7
2017-Mar-21 14:33N 54°30' E 018°39'2 2.0
2017-Mar-21 13:33N 54°29' E 018°42'2 2.5
2017-Mar-21 12:33N 54°31' E 018°40'5 4.6
2017-Mar-21 11:33N 54°32' E 018°33'1 0.8
2017-Mar-21 10:32N 54°32' E 018°31'0 0.0
2017-Mar-21 09:32N 54°32' E 018°31'0 0.0
2017-Mar-21 08:32N 54°32' E 018°31'0 0.0
2017-Mar-21 07:32N 54°32' E 018°31'0 0.0
2017-Mar-21 06:32N 54°32' E 018°31'0 0.0
2017-Mar-21 05:32N 54°32' E 018°31'0 0.0
2017-Mar-21 04:32N 54°32' E 018°31'0 0.0
2017-Mar-21 03:32N 54°32' E 018°31'0 0.0
2017-Mar-21 02:32N 54°32' E 018°31'0 0.0
2017-Mar-21 01:32N 54°32' E 018°31'0 0.0
2017-Mar-21 00:32N 54°32' E 018°31'0 0.0
2017-Mar-20 23:32N 54°32' E 018°31'0 0.0
2017-Mar-20 22:32N 54°32' E 018°31'0 0.0
2017-Mar-20 21:32N 54°32' E 018°31'0 0.0
2017-Mar-20 20:32N 54°32' E 018°31'0 0.0
2017-Mar-20 19:32N 54°32' E 018°31'0 0.0
2017-Mar-20 18:32N 54°32' E 018°31'0 0.0
2017-Mar-20 17:32N 54°32' E 018°31'0 0.0
2017-Mar-20 16:32N 54°32' E 018°31'0 0.0
2017-Mar-20 15:32N 54°32' E 018°31'0 0.0
2017-Mar-20 14:32N 54°32' E 018°31'0 0.0
2017-Mar-20 13:32N 54°32' E 018°31'0 0.0
2017-Mar-20 12:32N 54°32' E 018°31'0 0.0
2017-Mar-20 11:32N 54°32' E 018°31'0 0.0
2017-Mar-20 10:29N 54°32' E 018°31'0 0.0
2017-Mar-20 09:29N 54°32' E 018°31'0 0.0
2017-Mar-20 08:32N 54°32' E 018°31'0 0.0
2017-Mar-20 07:32N 54°32' E 018°31'0 0.0
2017-Mar-20 06:32N 54°32' E 018°31'0 0.0
2017-Mar-20 05:32N 54°32' E 018°31'0 0.0
2017-Mar-20 04:32N 54°32' E 018°31'0 0.0
2017-Mar-20 03:32N 54°32' E 018°31'0 0.0
2017-Mar-20 02:32N 54°32' E 018°31'0 0.0
2017-Mar-20 01:32N 54°32' E 018°31'0 0.0
2017-Mar-20 00:32N 54°32' E 018°31'0 0.0
2017-Mar-19 23:32N 54°32' E 018°31'0 0.0
2017-Mar-19 22:32N 54°32' E 018°31'0 0.0
2017-Mar-19 21:32N 54°32' E 018°31'0 0.0
2017-Mar-19 20:32N 54°32' E 018°31'0 0.0
2017-Mar-19 19:32N 54°32' E 018°31'0 0.0
2017-Mar-19 18:32N 54°32' E 018°31'0 0.0
2017-Mar-19 17:32N 54°32' E 018°31'0 0.0
2017-Mar-19 16:32N 54°32' E 018°31'0 0.0
2017-Mar-19 15:32N 54°32' E 018°31'0 0.0
2017-Mar-19 14:32N 54°32' E 018°31'0 0.0
2017-Mar-19 13:32N 54°32' E 018°31'0 0.0
2017-Mar-19 12:32N 54°32' E 018°31'0 0.0
2017-Mar-19 11:29N 54°32' E 018°31'0 0.0
2017-Mar-19 10:32N 54°32' E 018°31'0 0.0
2017-Mar-19 09:32N 54°32' E 018°31'0 0.0
2017-Mar-19 08:32N 54°32' E 018°31'0 0.0
2017-Mar-19 07:32N 54°32' E 018°31'0 0.0
2017-Mar-19 06:32N 54°32' E 018°31'0 0.0
2017-Mar-19 05:32N 54°32' E 018°31'0 0.0
2017-Mar-19 04:32N 54°32' E 018°31'0 0.0
2017-Mar-19 03:32N 54°32' E 018°31'0 0.0
2017-Mar-19 02:32N 54°32' E 018°31'0 0.0
2017-Mar-19 01:32N 54°32' E 018°31'0 0.0
2017-Mar-19 00:32N 54°32' E 018°31'0 0.0
2017-Mar-18 23:32N 54°32' E 018°31'0 0.0
2017-Mar-18 22:32N 54°32' E 018°31'0 0.0
2017-Mar-18 21:32N 54°32' E 018°31'0 0.0
2017-Mar-18 20:32N 54°32' E 018°31'0 0.0
2017-Mar-18 19:32N 54°32' E 018°31'0 0.0
2017-Mar-18 18:32N 54°32' E 018°31'0 0.0
2017-Mar-18 17:32N 54°32' E 018°31'0 0.0
2017-Mar-18 16:32N 54°32' E 018°31'0 0.0
2017-Mar-18 15:32N 54°32' E 018°31'0 0.0
2017-Mar-18 14:32N 54°32' E 018°31'0 0.0
2017-Mar-18 13:32N 54°32' E 018°31'0 0.0
2017-Mar-18 12:32N 54°32' E 018°31'0 0.0
2017-Mar-18 11:32N 54°32' E 018°31'0 0.0
2017-Mar-18 10:32N 54°32' E 018°31'0 0.0
2017-Mar-18 09:32N 54°32' E 018°31'0 0.0
2017-Mar-18 08:32N 54°32' E 018°31'0 0.0
2017-Mar-18 07:32N 54°32' E 018°31'0 0.0
2017-Mar-18 06:32N 54°32' E 018°31'0 0.0
2017-Mar-18 05:32N 54°32' E 018°31'0 0.0
2017-Mar-18 04:32N 54°32' E 018°31'0 0.0
2017-Mar-18 03:32N 54°32' E 018°31'0 0.0
2017-Mar-18 02:32N 54°32' E 018°31'0 0.0
2017-Mar-18 01:32N 54°32' E 018°31'0 0.0
2017-Mar-18 00:32N 54°32' E 018°31'0 0.0
2017-Mar-17 23:32N 54°32' E 018°31'0 0.0
2017-Mar-17 22:32N 54°32' E 018°31'0 0.0
2017-Mar-17 21:32N 54°32' E 018°31'0 0.0
2017-Mar-17 20:32N 54°32' E 018°31'0 0.0
2017-Mar-17 19:32N 54°32' E 018°31'0 0.0
2017-Mar-17 18:32N 54°32' E 018°31'0 0.0
2017-Mar-17 17:32N 54°32' E 018°31'0 0.0
2017-Mar-17 16:32N 54°32' E 018°31'0 0.0
2017-Mar-17 15:32N 54°32' E 018°31'1 1.4
2017-Mar-17 14:31N 54°31' E 018°33'1 1.5
2017-Mar-17 13:32N 54°32' E 018°31'0 0.0
2017-Mar-17 12:32N 54°32' E 018°31'0 0.0
2017-Mar-17 11:32N 54°32' E 018°31'0 0.0
2017-Mar-17 10:32N 54°32' E 018°31'0 0.0
2017-Mar-17 09:32N 54°32' E 018°31'0 0.0
2017-Mar-17 08:32N 54°32' E 018°31'0 0.0
2017-Mar-17 07:32N 54°32' E 018°31'0 0.0
2017-Mar-17 06:32N 54°32' E 018°31'0 0.0
2017-Mar-17 05:33N 54°32' E 018°31'0 0.0
2017-Mar-17 04:33N 54°32' E 018°31'0 0.0
2017-Mar-17 03:33N 54°32' E 018°31'2 2.5
2017-Mar-17 02:33N 54°30' E 018°33'2 2.4
2017-Mar-17 01:33N 54°32' E 018°31'0 0.0
2017-Mar-17 00:33N 54°32' E 018°31'0 0.0
2017-Mar-16 23:33N 54°32' E 018°31'0 0.0
2017-Mar-16 22:33N 54°32' E 018°31'0 0.0
2017-Mar-16 21:30N 54°32' E 018°31'0 0.0
2017-Mar-16 20:30N 54°32' E 018°31'0 0.0
2017-Mar-16 19:33N 54°32' E 018°31'0 0.0
2017-Mar-16 18:33N 54°32' E 018°31'1 0.7
2017-Mar-16 17:33N 54°32' E 018°32'1 0.6
2017-Mar-16 16:33N 54°32' E 018°32'1 1.4
2017-Mar-16 15:32N 54°34' E 018°33'2 2.2
2017-Mar-16 14:32N 54°31' E 018°32'1 0.8
2017-Mar-16 13:32N 54°32' E 018°31'0 0.0
2017-Mar-16 12:31N 54°32' E 018°31'0 0.0
2017-Mar-16 11:31N 54°32' E 018°31'0 0.0
2017-Mar-16 10:31N 54°32' E 018°31'0 0.0
2017-Mar-16 09:31N 54°32' E 018°31'0 0.0
2017-Mar-16 08:31N 54°32' E 018°31'0 0.0
2017-Mar-16 07:31N 54°32' E 018°31'0 0.0
2017-Mar-16 06:31N 54°32' E 018°31'0 0.0
2017-Mar-16 05:31N 54°32' E 018°31'0 0.0
2017-Mar-16 04:31N 54°32' E 018°31'0 0.0
2017-Mar-16 03:28N 54°32' E 018°31'0 0.0
2017-Mar-16 02:31N 54°32' E 018°31'0 0.0
2017-Mar-16 01:31N 54°32' E 018°31'0 0.0
2017-Mar-16 00:31N 54°32' E 018°31'0 0.0
2017-Mar-15 23:31N 54°32' E 018°31'0 0.0
2017-Mar-15 22:31N 54°32' E 018°31'0 0.0
2017-Mar-15 21:31N 54°32' E 018°31'0 0.0
2017-Mar-15 20:31N 54°32' E 018°31'0 0.0
2017-Mar-15 19:31N 54°32' E 018°31'0 0.0
2017-Mar-15 18:31N 54°32' E 018°31'0 0.0
2017-Mar-15 17:31N 54°32' E 018°31'0 0.0
2017-Mar-15 16:31N 54°32' E 018°31'0 0.0
2017-Mar-15 15:31N 54°32' E 018°31'0 0.0
2017-Mar-15 14:31N 54°32' E 018°31'0 0.0
2017-Mar-15 13:31N 54°32' E 018°31'0 0.0
2017-Mar-15 12:31N 54°32' E 018°31'0 0.0
2017-Mar-15 11:31N 54°32' E 018°31'0 0.0
2017-Mar-15 10:31N 54°32' E 018°31'0 0.0
2017-Mar-15 09:31N 54°32' E 018°31'0 0.0
2017-Mar-15 08:31N 54°32' E 018°31'0 0.0
2017-Mar-15 07:31N 54°32' E 018°31'0 0.0
2017-Mar-15 06:31N 54°32' E 018°31'0 0.0
2017-Mar-15 05:31N 54°32' E 018°31'0 0.0
2017-Mar-15 04:32N 54°32' E 018°31'0 0.0
2017-Mar-15 03:32N 54°32' E 018°31'0 0.0
2017-Mar-15 02:32N 54°32' E 018°31'0 0.0
2017-Mar-15 01:32N 54°32' E 018°31'0 0.0
2017-Mar-15 00:32N 54°32' E 018°31'0 0.0
2017-Mar-14 23:32N 54°32' E 018°31'0 0.0
2017-Mar-14 22:32N 54°32' E 018°31'  
Track history (hours):
 
Tides and Currents Weather Stations Pressure Air Temp Water Temp Dewpoint Dewpoint Depression Visibility Wind Speed Wind Dir Waves Ship Positions

Arklow Rogue

Last reported at 2017-Mar-24 22:32 UTC. Time now 2017-Mar-25 11:42 UTC.
Position N 57°16' E 008°20'.

Length 90 m; draft 3.4 m.

Type: Cargo ship. MMSI: 250000960.

Date/timePositionNaut miles runAvg speedWind from/ knotsBaromVisibWave heightAir tempDewpointWater temp
2017-Mar-24 22:32N 57°16' E 008°20'1110.7
2017-Mar-24 21:32N 57°22' E 008°37'6110.2
2017-Mar-24 15:33N 57°47' E 010°20'1110.6
2017-Mar-24 14:31N 57°49' E 010°40'1010.1
2017-Mar-24 13:33N 57°44' E 010°56'1010.0
2017-Mar-24 12:33N 57°37' E 011°09'1111.0
2017-Mar-24 11:33N 57°29' E 011°24'1111.1
2017-Mar-24 10:33N 57°19' E 011°32'1111.4
2017-Mar-24 09:33N 57°08' E 011°40'1111.4
2017-Mar-24 08:33N 56°58' E 011°46'1110.9
2017-Mar-24 07:32N 56°47' E 011°54'1111.0
2017-Mar-24 06:33N 56°37' E 011°59'1110.7
2017-Mar-24 05:33N 56°27' E 012°07'1110.9
2017-Mar-24 04:32N 56°18' E 012°19'1111.4
2017-Mar-24 03:33N 56°09' E 012°30'1211.8
2017-Mar-24 02:33N 55°59' E 012°42'1111.3
2017-Mar-24 01:34N 55°48' E 012°43'1211.8
2017-Mar-24 00:33N 55°36' E 012°42'1111.3
2017-Mar-23 23:33N 55°25' E 012°41'9 9.3
2017-Mar-23 22:33N 55°17' E 012°50'1111.5
2017-Mar-23 21:33N 55°15' E 013°10'1211.4
2017-Mar-23 20:32N 55°14' E 013°30'1111.1
2017-Mar-23 19:33N 55°13' E 013°49'1111.2
2017-Mar-23 18:33N 55°12' E 014°09'1111.1
2017-Mar-23 17:33N 55°06' E 014°25'1111.2
2017-Mar-23 16:33N 54°59' E 014°40'1111.0
2017-Mar-23 15:33N 54°54' E 014°57'1111.2
2017-Mar-23 14:33N 54°54' E 015°17'9511.2
2017-Mar-23 06:08N 54°54' E 018°01'711.3
2017-Mar-23 05:29N 54°54' E 018°14'1011.0
2017-Mar-23 04:34N 54°52' E 018°31'1111.4
2017-Mar-23 03:34N 54°45' E 018°47'9 9.3
2017-Mar-23 02:33N 54°37' E 018°55'10 9.9
2017-Mar-23 01:33N 54°29' E 018°45'6 6.3
2017-Mar-23 00:33N 54°24' E 018°41'2 1.9
2017-Mar-22 23:32N 54°22' E 018°40'0 0.0
2017-Mar-22 22:32N 54°22' E 018°40'0 0.0
2017-Mar-22 21:32N 54°22' E 018°40'0 0.0
2017-Mar-22 20:32N 54°22' E 018°40'0 0.0
2017-Mar-22 19:32N 54°22' E 018°40'0 0.0
2017-Mar-22 18:32N 54°22' E 018°40'0 0.0
2017-Mar-22 17:32N 54°22' E 018°40'0 0.0
2017-Mar-22 16:32N 54°22' E 018°40'0 0.0
2017-Mar-22 15:32N 54°22' E 018°40'0 0.0
2017-Mar-22 14:32N 54°22' E 018°40'0 0.0
2017-Mar-22 13:32N 54°22' E 018°40'0 0.0
2017-Mar-22 12:32N 54°22' E 018°40'0 0.0
2017-Mar-22 11:32N 54°22' E 018°40'0 0.0
2017-Mar-22 10:32N 54°22' E 018°40'0 0.0
2017-Mar-22 09:32N 54°22' E 018°40'0 0.0
2017-Mar-22 08:32N 54°22' E 018°40'0 0.0
2017-Mar-22 07:32N 54°22' E 018°40'0 0.0
2017-Mar-22 06:32N 54°22' E 018°40'0 0.0
2017-Mar-22 05:32N 54°22' E 018°40'0 0.0
2017-Mar-22 04:32N 54°22' E 018°40'0 0.0
2017-Mar-22 03:32N 54°22' E 018°40'0 0.0
2017-Mar-22 02:32N 54°22' E 018°40'0 0.0
2017-Mar-22 01:32N 54°22' E 018°40'0 0.0
2017-Mar-22 00:32N 54°22' E 018°40'0 0.0
2017-Mar-21 23:32N 54°22' E 018°40'0 0.0
2017-Mar-21 22:32N 54°22' E 018°40'0 0.0
2017-Mar-21 21:32N 54°22' E 018°40'0 0.0
2017-Mar-21 20:32N 54°22' E 018°40'0 0.0
2017-Mar-21 19:32N 54°22' E 018°40'0 0.0
2017-Mar-21 18:32N 54°22' E 018°40'0 0.0
2017-Mar-21 17:32N 54°22' E 018°40'0 0.0
2017-Mar-21 16:32N 54°22' E 018°40'1 1.4
2017-Mar-21 15:33N 54°23' E 018°40'7 6.7
2017-Mar-21 14:33N 54°30' E 018°39'2 2.0
2017-Mar-21 13:33N 54°29' E 018°42'2 2.5
2017-Mar-21 12:33N 54°31' E 018°40'5 4.6
2017-Mar-21 11:33N 54°32' E 018°33'1 0.8
2017-Mar-21 10:32N 54°32' E 018°31'0 0.0
2017-Mar-21 09:32N 54°32' E 018°31'0 0.0
2017-Mar-21 08:32N 54°32' E 018°31'0 0.0
2017-Mar-21 07:32N 54°32' E 018°31'0 0.0
2017-Mar-21 06:32N 54°32' E 018°31'0 0.0
2017-Mar-21 05:32N 54°32' E 018°31'0 0.0
2017-Mar-21 04:32N 54°32' E 018°31'0 0.0
2017-Mar-21 03:32N 54°32' E 018°31'0 0.0
2017-Mar-21 02:32N 54°32' E 018°31'0 0.0
2017-Mar-21 01:32N 54°32' E 018°31'0 0.0
2017-Mar-21 00:32N 54°32' E 018°31'0 0.0
2017-Mar-20 23:32N 54°32' E 018°31'0 0.0
2017-Mar-20 22:32N 54°32' E 018°31'0 0.0
2017-Mar-20 21:32N 54°32' E 018°31'0 0.0
2017-Mar-20 20:32N 54°32' E 018°31'0 0.0
2017-Mar-20 19:32N 54°32' E 018°31'0 0.0
2017-Mar-20 18:32N 54°32' E 018°31'0 0.0
2017-Mar-20 17:32N 54°32' E 018°31'0 0.0
2017-Mar-20 16:32N 54°32' E 018°31'0 0.0
2017-Mar-20 15:32N 54°32' E 018°31'0 0.0
2017-Mar-20 14:32N 54°32' E 018°31'0 0.0
2017-Mar-20 13:32N 54°32' E 018°31'0 0.0
2017-Mar-20 12:32N 54°32' E 018°31'0 0.0
2017-Mar-20 11:32N 54°32' E 018°31'0 0.0
2017-Mar-20 10:29N 54°32' E 018°31'0 0.0
2017-Mar-20 09:29N 54°32' E 018°31'0 0.0
2017-Mar-20 08:32N 54°32' E 018°31'0 0.0
2017-Mar-20 07:32N 54°32' E 018°31'0 0.0
2017-Mar-20 06:32N 54°32' E 018°31'0 0.0
2017-Mar-20 05:32N 54°32' E 018°31'0 0.0
2017-Mar-20 04:32N 54°32' E 018°31'0 0.0
2017-Mar-20 03:32N 54°32' E 018°31'0 0.0
2017-Mar-20 02:32N 54°32' E 018°31'0 0.0
2017-Mar-20 01:32N 54°32' E 018°31'0 0.0
2017-Mar-20 00:32N 54°32' E 018°31'0 0.0
2017-Mar-19 23:32N 54°32' E 018°31'0 0.0
2017-Mar-19 22:32N 54°32' E 018°31'0 0.0
2017-Mar-19 21:32N 54°32' E 018°31'0 0.0
2017-Mar-19 20:32N 54°32' E 018°31'0 0.0
2017-Mar-19 19:32N 54°32' E 018°31'0 0.0
2017-Mar-19 18:32N 54°32' E 018°31'0 0.0
2017-Mar-19 17:32N 54°32' E 018°31'0 0.0
2017-Mar-19 16:32N 54°32' E 018°31'0 0.0
2017-Mar-19 15:32N 54°32' E 018°31'0 0.0
2017-Mar-19 14:32N 54°32' E 018°31'0 0.0
2017-Mar-19 13:32N 54°32' E 018°31'0 0.0
2017-Mar-19 12:32N 54°32' E 018°31'0 0.0
2017-Mar-19 11:29N 54°32' E 018°31'0 0.0
2017-Mar-19 10:32N 54°32' E 018°31'0 0.0
2017-Mar-19 09:32N 54°32' E 018°31'0 0.0
2017-Mar-19 08:32N 54°32' E 018°31'0 0.0
2017-Mar-19 07:32N 54°32' E 018°31'0 0.0
2017-Mar-19 06:32N 54°32' E 018°31'0 0.0
2017-Mar-19 05:32N 54°32' E 018°31'0 0.0
2017-Mar-19 04:32N 54°32' E 018°31'0 0.0
2017-Mar-19 03:32N 54°32' E 018°31'0 0.0
2017-Mar-19 02:32N 54°32' E 018°31'0 0.0
2017-Mar-19 01:32N 54°32' E 018°31'0 0.0
2017-Mar-19 00:32N 54°32' E 018°31'0 0.0
2017-Mar-18 23:32N 54°32' E 018°31'0 0.0
2017-Mar-18 22:32N 54°32' E 018°31'0 0.0
2017-Mar-18 21:32N 54°32' E 018°31'0 0.0
2017-Mar-18 20:32N 54°32' E 018°31'0 0.0
2017-Mar-18 19:32N 54°32' E 018°31'0 0.0
2017-Mar-18 18:32N 54°32' E 018°31'0 0.0
2017-Mar-18 17:32N 54°32' E 018°31'0 0.0
2017-Mar-18 16:32N 54°32' E 018°31'0 0.0
2017-Mar-18 15:32N 54°32' E 018°31'0 0.0
2017-Mar-18 14:32N 54°32' E 018°31'0 0.0
2017-Mar-18 13:32N 54°32' E 018°31'0 0.0
2017-Mar-18 12:32N 54°32' E 018°31'0 0.0
2017-Mar-18 11:32N 54°32' E 018°31'0 0.0
2017-Mar-18 10:32N 54°32' E 018°31'0 0.0
2017-Mar-18 09:32N 54°32' E 018°31'0 0.0
2017-Mar-18 08:32N 54°32' E 018°31'0 0.0
2017-Mar-18 07:32N 54°32' E 018°31'0 0.0
2017-Mar-18 06:32N 54°32' E 018°31'0 0.0
2017-Mar-18 05:32N 54°32' E 018°31'0 0.0
2017-Mar-18 04:32N 54°32' E 018°31'0 0.0
2017-Mar-18 03:32N 54°32' E 018°31'0 0.0
2017-Mar-18 02:32N 54°32' E 018°31'0 0.0
2017-Mar-18 01:32N 54°32' E 018°31'0 0.0
2017-Mar-18 00:32N 54°32' E 018°31'0 0.0
2017-Mar-17 23:32N 54°32' E 018°31'0 0.0
2017-Mar-17 22:32N 54°32' E 018°31'0 0.0
2017-Mar-17 21:32N 54°32' E 018°31'0 0.0
2017-Mar-17 20:32N 54°32' E 018°31'0 0.0
2017-Mar-17 19:32N 54°32' E 018°31'0 0.0
2017-Mar-17 18:32N 54°32' E 018°31'0 0.0
2017-Mar-17 17:32N 54°32' E 018°31'0 0.0
2017-Mar-17 16:32N 54°32' E 018°31'0 0.0
2017-Mar-17 15:32N 54°32' E 018°31'1 1.4
2017-Mar-17 14:31N 54°31' E 018°33'1 1.5
2017-Mar-17 13:32N 54°32' E 018°31'0 0.0
2017-Mar-17 12:32N 54°32' E 018°31'0 0.0
2017-Mar-17 11:32N 54°32' E 018°31'0 0.0
2017-Mar-17 10:32N 54°32' E 018°31'0 0.0
2017-Mar-17 09:32N 54°32' E 018°31'0 0.0
2017-Mar-17 08:32N 54°32' E 018°31'0 0.0
2017-Mar-17 07:32N 54°32' E 018°31'0 0.0
2017-Mar-17 06:32N 54°32' E 018°31'0 0.0
2017-Mar-17 05:33N 54°32' E 018°31'0 0.0
2017-Mar-17 04:33N 54°32' E 018°31'0 0.0
2017-Mar-17 03:33N 54°32' E 018°31'2 2.5
2017-Mar-17 02:33N 54°30' E 018°33'2 2.4
2017-Mar-17 01:33N 54°32' E 018°31'0 0.0
2017-Mar-17 00:33N 54°32' E 018°31'0 0.0
2017-Mar-16 23:33N 54°32' E 018°31'0 0.0
2017-Mar-16 22:33N 54°32' E 018°31'0 0.0
2017-Mar-16 21:30N 54°32' E 018°31'0 0.0
2017-Mar-16 20:30N 54°32' E 018°31'0 0.0
2017-Mar-16 19:33N 54°32' E 018°31'0 0.0
2017-Mar-16 18:33N 54°32' E 018°31'1 0.7
2017-Mar-16 17:33N 54°32' E 018°32'1 0.6
2017-Mar-16 16:33N 54°32' E 018°32'1 1.4
2017-Mar-16 15:32N 54°34' E 018°33'2 2.2
2017-Mar-16 14:32N 54°31' E 018°32'1 0.8
2017-Mar-16 13:32N 54°32' E 018°31'0 0.0
2017-Mar-16 12:31N 54°32' E 018°31'0 0.0
2017-Mar-16 11:31N 54°32' E 018°31'0 0.0
2017-Mar-16 10:31N 54°32' E 018°31'0 0.0
2017-Mar-16 09:31N 54°32' E 018°31'0 0.0
2017-Mar-16 08:31N 54°32' E 018°31'0 0.0
2017-Mar-16 07:31N 54°32' E 018°31'0 0.0
2017-Mar-16 06:31N 54°32' E 018°31'0 0.0
2017-Mar-16 05:31N 54°32' E 018°31'0 0.0
2017-Mar-16 04:31N 54°32' E 018°31'0 0.0
2017-Mar-16 03:28N 54°32' E 018°31'0 0.0
2017-Mar-16 02:31N 54°32' E 018°31'0 0.0
2017-Mar-16 01:31N 54°32' E 018°31'0 0.0
2017-Mar-16 00:31N 54°32' E 018°31'0 0.0
2017-Mar-15 23:31N 54°32' E 018°31'0 0.0
2017-Mar-15 22:31N 54°32' E 018°31'0 0.0
2017-Mar-15 21:31N 54°32' E 018°31'0 0.0
2017-Mar-15 20:31N 54°32' E 018°31'0 0.0
2017-Mar-15 19:31N 54°32' E 018°31'0 0.0
2017-Mar-15 18:31N 54°32' E 018°31'0 0.0
2017-Mar-15 17:31N 54°32' E 018°31'0 0.0
2017-Mar-15 16:31N 54°32' E 018°31'0 0.0
2017-Mar-15 15:31N 54°32' E 018°31'0 0.0
2017-Mar-15 14:31N 54°32' E 018°31'0 0.0
2017-Mar-15 13:31N 54°32' E 018°31'0 0.0
2017-Mar-15 12:31N 54°32' E 018°31'0 0.0
2017-Mar-15 11:31N 54°32' E 018°31'0 0.0
2017-Mar-15 10:31N 54°32' E 018°31'0 0.0
2017-Mar-15 09:31N 54°32' E 018°31'0 0.0
2017-Mar-15 08:31N 54°32' E 018°31'0 0.0
2017-Mar-15 07:31N 54°32' E 018°31'0 0.0
2017-Mar-15 06:31N 54°32' E 018°31'0 0.0
2017-Mar-15 05:31N 54°32' E 018°31'0 0.0
2017-Mar-15 04:32N 54°32' E 018°31'0 0.0
2017-Mar-15 03:32N 54°32' E 018°31'0 0.0
2017-Mar-15 02:32N 54°32' E 018°31'0 0.0
2017-Mar-15 01:32N 54°32' E 018°31'0 0.0
2017-Mar-15 00:32N 54°32' E 018°31'0 0.0
2017-Mar-14 23:32N 54°32' E 018°31'0 0.0
2017-Mar-14 22:32N 54°32' E 018°31'  

Dump ship's entire track history